Time;durP1;ratioP1;P1;durP2;ratioP2;P2;SDS_P1;SDS_P2;PMS_P1;PMS_P2;Temp;Humidity;BMP_temperature;BMP_pressure;BME280_temperature;BME280_humidity;BME280_pressure;Samples;Min_cycle;Max_cycle;Signal;HPM_P1;HPM_P2
2022/03/12 00:02:32;;;;;;;14.30;5.43;;;;;;;-1.32;32.66;101410.13;4438170;32;34635;-76
2022/03/12 00:05:19;;;;;;;12.13;5.12;;;;;;;-1.94;34.24;101416.78;4415855;32;34900;-76
2022/03/12 00:08:08;;;;;;;13.77;5.30;;;;;;;-3.80;38.83;101413.47;4438835;32;34800;-76
2022/03/12 00:10:54;;;;;;;18.27;6.93;;;;;;;-3.33;39.69;101420.63;4438474;32;34337;-76
2022/03/12 00:13:41;;;;;;;17.58;7.18;;;;;;;-3.64;40.04;101414.25;4438175;32;34736;-76
2022/03/12 00:16:28;;;;;;;18.42;7.82;;;;;;;-3.02;39.47;101407.19;4432255;32;35011;-76
2022/03/12 00:19:15;;;;;;;21.65;6.87;;;;;;;-2.38;38.88;101409.53;4428146;32;34531;-75
2022/03/12 00:22:04;;;;;;;15.48;6.55;;;;;;;-2.83;41.04;101409.41;4423693;32;34084;-76
2022/03/12 00:24:51;;;;;;;16.70;6.95;;;;;;;-2.84;41.21;101404.22;4438125;32;34726;-76
2022/03/12 00:27:41;;;;;;;17.40;6.43;;;;;;;-2.81;41.08;101401.19;4430229;32;35964;-76
2022/03/12 00:30:27;;;;;;;17.62;7.65;;;;;;;-2.50;40.08;101396.53;4437213;32;34587;-76
2022/03/12 00:33:14;;;;;;;22.92;8.95;;;;;;;-2.77;41.07;101399.78;4438279;32;34382;-76
2022/03/12 00:36:01;;;;;;;23.35;8.27;;;;;;;-3.03;42.05;101409.03;4431097;32;34352;-76
2022/03/12 00:38:48;;;;;;;23.62;9.00;;;;;;;-3.00;41.98;101400.63;4437470;32;35046;-76
2022/03/12 00:41:36;;;;;;;15.20;6.25;;;;;;;-3.09;42.38;101403.56;4437609;32;34679;-76
2022/03/12 00:44:22;;;;;;;19.30;5.50;;;;;;;-3.48;43.23;101401.78;4437359;32;34182;-76
2022/03/12 00:47:08;;;;;;;13.27;5.62;;;;;;;-3.36;42.50;101389.63;4437194;32;35471;-75
2022/03/12 00:49:55;;;;;;;21.92;8.40;;;;;;;-3.18;41.84;101398.25;4426871;32;36031;-76
2022/03/12 00:52:42;;;;;;;25.77;9.20;;;;;;;-3.75;43.83;101411.12;4428456;32;35481;-76
2022/03/12 00:55:28;;;;;;;24.60;9.30;;;;;;;-3.75;42.92;101400.41;4426607;32;34211;-75
2022/03/12 00:58:15;;;;;;;22.67;7.47;;;;;;;-4.14;44.49;101402.03;4412928;32;34590;-76
2022/03/12 01:01:02;;;;;;;25.20;9.35;;;;;;;-3.82;44.21;101410.13;4410070;32;34875;-77
2022/03/12 01:03:49;;;;;;;28.87;9.85;;;;;;;-3.22;42.19;101399.59;4433250;32;34627;-76
2022/03/12 01:06:37;;;;;;;24.37;9.18;;;;;;;-4.09;43.42;101401.53;4419152;32;35075;-76
2022/03/12 01:09:23;;;;;;;25.08;9.18;;;;;;;-3.73;43.60;101396.56;4415259;32;34652;-76
2022/03/12 01:12:10;;;;;;;21.62;8.52;;;;;;;-3.46;42.46;101402.44;4414976;32;35093;-77
2022/03/12 01:14:57;;;;;;;24.40;10.10;;;;;;;-3.62;43.17;101404.16;4415559;32;34559;-76
2022/03/12 01:17:43;;;;;;;21.23;8.38;;;;;;;-3.69;43.52;101397.84;4408908;32;34204;-76
2022/03/12 01:20:30;;;;;;;15.27;6.93;;;;;;;-3.40;43.22;101396.37;4429546;32;34722;-76
2022/03/12 01:23:18;;;;;;;17.77;6.53;;;;;;;-3.29;42.22;101395.97;4427935;32;34914;-76
2022/03/12 01:26:04;;;;;;;17.58;6.53;;;;;;;-3.41;41.24;101397.41;4421091;32;35180;-76
2022/03/12 01:28:52;;;;;;;17.17;6.62;;;;;;;-3.26;41.57;101394.78;4433386;32;35246;-76
2022/03/12 01:31:38;;;;;;;18.52;7.03;;;;;;;-3.13;40.72;101394.19;4427559;32;34337;-77
2022/03/12 01:34:24;;;;;;;19.05;7.30;;;;;;;-3.04;40.21;101393.16;4430035;32;35909;-76
2022/03/12 01:37:12;;;;;;;16.60;6.55;;;;;;;-3.60;41.91;101400.50;4424843;32;35437;-76
2022/03/12 01:39:58;;;;;;;19.40;7.12;;;;;;;-3.27;41.69;101399.31;4426293;32;35157;-76
2022/03/12 01:42:45;;;;;;;17.85;7.15;;;;;;;-3.14;41.25;101413.97;4430341;32;35542;-76
2022/03/12 01:45:33;;;;;;;16.70;6.43;;;;;;;-4.30;44.45;101420.78;4419774;32;36015;-76
2022/03/12 01:48:19;;;;;;;16.75;7.20;;;;;;;-3.78;43.77;101422.19;4426507;32;33598;-76
2022/03/12 01:51:06;;;;;;;18.50;6.85;;;;;;;-3.95;43.95;101418.72;4445978;32;34269;-76
2022/03/12 01:53:52;;;;;;;16.55;6.70;;;;;;;-3.36;42.62;101426.34;4430915;32;34656;-76
2022/03/12 01:56:38;;;;;;;16.00;6.10;;;;;;;-3.31;42.18;101421.28;4433766;32;34963;-76
2022/03/12 01:59:25;;;;;;;18.35;6.82;;;;;;;-3.10;40.95;101415.28;4432629;32;35513;-76
2022/03/12 02:02:13;;;;;;;14.55;6.15;;;;;;;-3.19;40.71;101407.31;4424246;32;34161;-76
2022/03/12 02:05:03;;;;;;;18.40;6.53;;;;;;;-3.32;41.53;101423.13;4438942;32;34658;-76
2022/03/12 02:07:49;;;;;;;14.35;5.78;;;;;;;-3.32;41.85;101417.78;4439323;32;34953;-77
2022/03/12 02:10:41;;;;;;;21.40;7.32;;;;;;;-3.24;41.57;101412.38;4442168;32;35547;-76
2022/03/12 02:13:29;;;;;;;26.45;8.45;;;;;;;-3.43;41.14;101415.47;4431640;32;35036;-77
2022/03/12 02:16:16;;;;;;;20.10;7.30;;;;;;;-3.52;41.44;101413.88;4434182;32;34627;-76
2022/03/12 02:19:03;;;;;;;18.35;7.18;;;;;;;-3.72;41.75;101416.97;4445216;32;35003;-76
2022/03/12 02:21:52;;;;;;;16.58;5.47;;;;;;;-3.70;41.78;101414.09;4435795;32;34891;-76
2022/03/12 02:24:38;;;;;;;13.60;4.93;;;;;;;-3.45;41.14;101414.81;4447497;32;33398;-76
2022/03/12 02:27:25;;;;;;;13.48;4.70;;;;;;;-3.58;41.48;101406.53;4437018;32;34663;-75
2022/03/12 02:30:12;;;;;;;14.43;5.32;;;;;;;-3.14;40.50;101408.62;4433636;32;35891;-75
2022/03/12 02:33:01;;;;;;;17.55;5.72;;;;;;;-3.35;41.02;101419.97;4444985;32;35585;-75
2022/03/12 02:35:48;;;;;;;12.75;5.80;;;;;;;-3.55;42.00;101416.91;4432632;32;97686;-76
2022/03/12 02:38:35;;;;;;;13.55;4.97;;;;;;;-3.45;41.75;101417.50;4447147;32;35589;-76
2022/03/12 02:41:23;;;;;;;15.57;5.15;;;;;;;-3.36;40.90;101419.13;4440761;32;35912;-76
2022/03/12 02:44:17;;;;;;;12.57;4.03;;;;;;;-3.49;40.47;101413.50;4434052;32;34343;-76
2022/03/12 02:47:21;;;;;;;11.60;5.07;;;;;;;-3.48;41.16;101412.50;4432228;32;34163;-76
2022/03/12 02:50:09;;;;;;;9.90;4.40;;;;;;;-3.21;40.38;101414.69;4431135;32;34583;-76
2022/03/12 02:52:55;;;;;;;12.32;4.53;;;;;;;-3.26;40.35;101425.09;4438565;32;34991;-75
2022/03/12 02:55:42;;;;;;;13.27;5.22;;;;;;;-3.74;42.24;101423.50;4432992;32;34706;-76
2022/03/12 02:58:28;;;;;;;7.97;3.53;;;;;;;-3.54;41.69;101423.91;4435475;32;34209;-76
2022/03/12 03:01:14;;;;;;;9.73;3.60;;;;;;;-3.29;40.30;101427.31;4439307;32;35476;-75
2022/03/12 03:04:00;;;;;;;10.45;3.40;;;;;;;-3.58;39.29;101418.06;4431964;32;34895;-75
2022/03/12 03:06:47;;;;;;;8.18;3.10;;;;;;;-3.05;38.43;101412.91;4435295;32;35567;-76
2022/03/12 03:09:33;;;;;;;8.68;3.05;;;;;;;-2.89;37.63;101412.78;4437626;32;34196;-76
2022/03/12 03:12:22;;;;;;;9.00;3.08;;;;;;;-2.88;37.45;101424.34;4426501;32;34584;-75
2022/03/12 03:15:10;;;;;;;9.02;3.42;;;;;;;-3.13;37.85;101415.63;4436521;32;34911;-75
2022/03/12 03:17:57;;;;;;;7.65;3.33;;;;;;;-3.01;37.55;101427.66;4430697;32;34778;-77
2022/03/12 03:20:44;;;;;;;6.87;2.95;;;;;;;-2.89;37.52;101426.22;4433284;32;35271;-76
2022/03/12 03:23:31;;;;;;;8.13;2.90;;;;;;;-2.89;37.31;101423.53;4439482;32;34654;-76
2022/03/12 03:26:39;;;;;;;7.82;2.80;;;;;;;-2.77;37.05;101421.25;4436650;32;34984;-76
2022/03/12 03:29:28;;;;;;;7.15;3.05;;;;;;;-2.60;36.80;101422.78;4431256;32;35415;-76
2022/03/12 03:32:14;;;;;;;6.70;2.80;;;;;;;-2.41;35.98;101426.00;4431912;32;34218;-76
2022/03/12 03:35:01;;;;;;;7.65;2.87;;;;;;;-2.29;35.82;101430.72;4439153;32;34611;-75
2022/03/12 03:37:47;;;;;;;9.25;3.00;;;;;;;-2.19;35.65;101425.12;4438916;32;35970;-75
2022/03/12 03:40:34;;;;;;;6.43;3.00;;;;;;;-2.06;35.51;101435.22;4439171;32;35479;-75
2022/03/12 03:43:23;;;;;;;7.78;3.28;;;;;;;-2.15;35.47;101430.94;4417141;32;34070;-75
2022/03/12 03:46:09;;;;;;;7.37;2.72;;;;;;;-1.98;35.06;101432.44;4427543;32;35561;-75
2022/03/12 03:48:56;;;;;;;9.98;2.70;;;;;;;-1.83;34.90;101435.94;4433243;32;34806;-76
2022/03/12 03:51:42;;;;;;;6.95;2.97;;;;;;;-1.78;34.54;101435.41;4439088;32;34706;-76
2022/03/12 03:54:29;;;;;;;10.88;3.70;;;;;;;-1.85;34.74;101438.00;4427733;32;35057;-76
2022/03/12 03:57:17;;;;;;;8.90;3.20;;;;;;;-1.82;34.53;101439.50;4439206;32;35466;-76
2022/03/12 04:00:05;;;;;;;8.18;2.90;;;;;;;-1.97;35.22;101439.47;4434608;32;36076;-76
2022/03/12 04:03:02;;;;;;;6.65;2.53;;;;;;;-1.74;34.50;101436.69;4417238;32;34579;-77
2022/03/12 04:05:50;;;;;;;7.32;2.83;;;;;;;-1.88;34.78;101441.06;4424606;32;35026;-76
2022/03/12 04:08:36;;;;;;;8.77;2.90;;;;;;;-1.64;34.34;101433.75;4418729;32;34654;-76
2022/03/12 04:11:24;;;;;;;8.02;2.70;;;;;;;-1.85;34.71;101431.78;4438907;32;34928;-76
2022/03/12 04:14:11;;;;;;;6.15;2.40;;;;;;;-1.63;34.43;101430.03;4424850;32;35684;-75
2022/03/12 04:17:04;;;;;;;7.68;2.85;;;;;;;-2.07;35.47;101429.00;4413066;32;35281;-75
2022/03/12 04:19:50;;;;;;;7.75;3.10;;;;;;;-1.68;34.65;101432.44;4401772;32;35524;-76
2022/03/12 04:22:39;;;;;;;6.35;2.40;;;;;;;-1.75;34.68;101431.53;4421169;32;35034;-75
2022/03/12 04:25:29;;;;;;;7.47;3.08;;;;;;;-1.77;34.60;101431.69;4427354;32;34556;-76
2022/03/12 04:28:15;;;;;;;6.43;2.40;;;;;;;-1.93;35.04;101432.72;4417004;32;34163;-76
2022/03/12 04:31:03;;;;;;;7.57;3.03;;;;;;;-1.65;34.50;101434.75;4438233;32;34580;-76
2022/03/12 04:33:49;;;;;;;9.25;2.90;;;;;;;-1.77;34.80;101428.19;4438853;32;35897;-76
2022/03/12 04:36:36;;;;;;;8.43;2.85;;;;;;;-1.84;34.76;101428.91;4437541;32;35565;-76
2022/03/12 04:39:23;;;;;;;6.05;3.12;;;;;;;-1.88;34.82;101424.09;4436176;32;34098;-76
2022/03/12 04:42:09;;;;;;;8.55;3.10;;;;;;;-1.58;34.66;101430.28;4438804;32;35612;-76
2022/03/12 04:44:55;;;;;;;6.10;2.70;;;;;;;-1.66;34.55;101435.78;4433550;32;34983;-76
2022/03/12 04:47:45;;;;;;;8.35;3.47;;;;;;;-1.83;35.15;101438.62;4438537;32;34703;-76
2022/03/12 04:50:31;;;;;;;8.60;3.53;;;;;;;-1.67;34.92;101439.50;4423045;32;35010;-76
2022/03/12 04:53:18;;;;;;;6.80;3.08;;;;;;;-1.89;35.81;101444.75;4426886;32;34595;-75
2022/03/12 04:56:05;;;;;;;7.12;2.90;;;;;;;-2.71;37.25;101437.47;4427281;32;36049;-76
2022/03/12 04:58:53;;;;;;;8.35;2.67;;;;;;;-3.22;39.60;101441.66;4425769;32;34728;-76
2022/03/12 05:01:40;;;;;;;9.60;2.97;;;;;;;-2.34;38.07;101449.22;4417024;32;35235;-76
2022/03/12 05:04:26;;;;;;;9.38;3.10;;;;;;;-2.22;37.79;101449.66;4422793;32;34571;-76
2022/03/12 05:07:13;;;;;;;7.40;2.90;;;;;;;-3.50;40.59;101455.56;4413439;32;35821;-76
2022/03/12 05:10:00;;;;;;;14.38;4.78;;;;;;;-2.86;39.52;101450.00;4405864;32;34787;-75
2022/03/12 05:12:49;;;;;;;7.20;3.20;;;;;;;-2.34;38.45;101443.84;4423421;32;35362;-76
2022/03/12 05:15:39;;;;;;;12.45;4.07;;;;;;;-2.22;38.14;101444.28;4409940;32;34549;-76
2022/03/12 05:18:26;;;;;;;11.15;4.18;;;;;;;-2.88;39.83;101448.50;4418936;32;34970;-76
2022/03/12 05:21:12;;;;;;;13.82;4.25;;;;;;;-3.08;40.51;101454.31;4409360;32;34784;-76
2022/03/12 05:23:58;;;;;;;8.98;4.20;;;;;;;-3.45;41.52;101457.69;4419579;32;35220;-76
2022/03/12 05:26:45;;;;;;;9.82;4.25;;;;;;;-2.80;40.49;101451.97;4413734;32;34639;-76
2022/03/12 05:29:34;;;;;;;8.52;3.80;;;;;;;-2.32;39.65;101449.06;4411533;32;35004;-76
2022/03/12 05:32:21;;;;;;;9.43;4.00;;;;;;;-2.42;39.42;101454.69;4422804;32;34553;-76
2022/03/12 05:35:09;;;;;;;10.45;3.62;;;;;;;-2.34;39.57;101454.59;4421647;32;35166;-76
2022/03/12 05:37:55;;;;;;;8.77;3.85;;;;;;;-2.22;39.05;101451.47;4397243;32;35502;-76
2022/03/12 05:40:42;;;;;;;7.87;3.85;;;;;;;-2.31;39.60;101454.25;4418222;32;37085;-76
2022/03/12 05:43:29;;;;;;;8.82;3.47;;;;;;;-2.43;39.85;101455.69;4411780;32;34498;-76
2022/03/12 05:46:17;;;;;;;10.95;3.45;;;;;;;-2.65;40.25;101452.00;4424160;32;33710;-76
2022/03/12 05:49:03;;;;;;;8.85;3.83;;;;;;;-2.41;40.34;101451.00;4431519;32;35559;-76
2022/03/12 05:51:50;;;;;;;8.55;3.83;;;;;;;-2.34;40.49;101446.53;4441552;32;34748;-75
2022/03/12 05:54:37;;;;;;;8.93;3.37;;;;;;;-2.23;39.68;101447.97;4439478;32;34741;-76
2022/03/12 05:57:23;;;;;;;6.40;3.22;;;;;;;-2.23;39.38;101449.81;4441779;32;34149;-75
2022/03/12 06:00:11;;;;;;;6.87;2.33;;;;;;;-2.35;39.14;101452.12;4429414;32;34302;-75
2022/03/12 06:02:59;;;;;;;7.07;2.92;;;;;;;-2.35;38.94;101450.25;4427943;32;35055;-76
2022/03/12 06:05:46;;;;;;;6.65;2.87;;;;;;;-2.31;38.77;101443.50;4431283;32;35306;-76
2022/03/12 06:08:33;;;;;;;6.25;2.60;;;;;;;-2.13;38.73;101445.03;4438606;32;34347;-76
2022/03/12 06:11:19;;;;;;;7.87;2.80;;;;;;;-2.37;38.74;101444.22;4446920;32;34177;-76
2022/03/12 06:14:06;;;;;;;8.10;2.83;;;;;;;-2.11;38.40;101453.72;4442749;32;35037;-76
2022/03/12 06:16:53;;;;;;;8.02;2.62;;;;;;;-2.36;39.10;101453.09;4432702;32;34630;-75
2022/03/12 06:19:39;;;;;;;7.75;2.62;;;;;;;-2.04;38.50;101449.28;4445905;32;34126;-76
2022/03/12 06:22:25;;;;;;;7.93;2.92;;;;;;;-1.85;38.22;101451.44;4445001;32;34690;-76
2022/03/12 06:25:13;;;;;;;8.25;2.75;;;;;;;-1.63;37.93;101452.34;4438966;32;34919;-76
2022/03/12 06:28:02;;;;;;;6.37;2.67;;;;;;;-1.44;37.40;101455.50;4438419;32;34337;-76
2022/03/12 06:30:53;;;;;;;6.50;2.47;;;;;;;-1.44;37.50;101458.19;4436093;32;33831;-76
2022/03/12 06:33:42;;;;;;;5.93;2.40;;;;;;;-1.78;38.18;101461.44;4434030;32;35194;-76
2022/03/12 06:36:28;;;;;;;5.25;2.28;;;;;;;-1.14;37.02;101457.13;4431543;32;34667;-77
2022/03/12 06:39:15;;;;;;;8.30;2.28;;;;;;;-1.01;37.20;101461.81;4441566;32;34149;-77
2022/03/12 06:42:02;;;;;;;7.32;2.53;;;;;;;-1.33;36.87;101460.41;4441792;32;34119;-77
2022/03/12 06:44:52;;;;;;;6.32;2.00;;;;;;;-1.32;36.94;101466.59;4427053;32;34596;-76
2022/03/12 06:47:38;;;;;;;6.40;2.72;;;;;;;-0.98;36.21;101474.03;4414474;32;34704;-76
2022/03/12 06:50:27;;;;;;;4.60;2.00;;;;;;;-0.51;35.25;101472.69;4434337;32;34519;-76
2022/03/12 06:53:14;;;;;;;6.53;2.67;;;;;;;-0.42;35.38;101474.22;4433812;32;34175;-76
2022/03/12 06:56:01;;;;;;;4.25;2.33;;;;;;;-0.48;35.52;101478.50;4417472;32;34640;-75
2022/03/12 06:58:47;;;;;;;5.72;2.08;;;;;;;-0.49;34.52;101476.81;4422940;32;34962;-76
2022/03/12 07:01:33;;;;;;;5.32;2.20;;;;;;;-0.44;34.90;101489.72;4429321;32;34741;-76
2022/03/12 07:04:21;;;;;;;8.75;2.67;;;;;;;-0.26;34.70;101483.84;4434321;32;34068;-76
2022/03/12 07:07:08;;;;;;;5.00;2.00;;;;;;;-0.18;34.46;101486.41;4433359;32;35292;-75
2022/03/12 07:09:54;;;;;;;8.55;2.55;;;;;;;0.04;33.62;101492.59;4434805;32;35020;-75
2022/03/12 07:12:43;;;;;;;6.12;2.28;;;;;;;-0.38;34.33;101488.94;4434180;32;34118;-76
2022/03/12 07:15:29;;;;;;;9.90;3.00;;;;;;;-0.51;34.42;101500.44;4429463;32;34169;-75
2022/03/12 07:18:16;;;;;;;6.55;2.70;;;;;;;-0.20;34.13;101493.84;4434875;32;34216;-75
2022/03/12 07:21:02;;;;;;;8.38;2.50;;;;;;;-0.24;33.70;101498.81;4434265;32;35059;-76
2022/03/12 07:23:48;;;;;;;7.47;2.83;;;;;;;-0.03;33.85;101487.19;4431070;32;34530;-76
2022/03/12 07:26:35;;;;;;;6.70;2.80;;;;;;;-0.11;34.09;101487.31;4434574;32;33683;-74
2022/03/12 07:29:21;;;;;;;8.23;2.58;;;;;;;0.21;33.67;101487.75;4422317;32;35427;-75
2022/03/12 07:32:08;;;;;;;8.18;2.50;;;;;;;0.39;33.25;101489.94;4415148;32;34926;-75
2022/03/12 07:34:54;;;;;;;7.53;3.22;;;;;;;0.56;33.35;101485.88;4433345;32;34112;-75
2022/03/12 07:37:42;;;;;;;7.15;3.05;;;;;;;0.96;32.54;101494.13;4434581;32;35071;-75
2022/03/12 07:40:29;;;;;;;7.18;2.90;;;;;;;0.71;33.08;101488.44;4421623;32;35277;-75
2022/03/12 07:43:15;;;;;;;8.45;3.00;;;;;;;1.33;32.14;101491.97;4426388;32;34959;-75
2022/03/12 07:46:03;;;;;;;8.20;3.08;;;;;;;0.86;32.59;101489.12;4434729;32;35570;-74
2022/03/12 07:48:50;;;;;;;6.50;2.92;;;;;;;0.95;32.21;101480.87;4434325;32;34210;-75
2022/03/12 07:51:36;;;;;;;7.87;2.72;;;;;;;1.17;32.44;101484.22;4422642;32;34537;-75
2022/03/12 07:54:23;;;;;;;9.05;3.25;;;;;;;0.48;32.71;101471.72;4433869;32;35829;-74
2022/03/12 07:57:10;;;;;;;5.85;2.67;;;;;;;1.29;32.89;101475.34;4427243;32;35329;-75
2022/03/12 07:59:55;;;;;;;7.07;3.40;;;;;;;1.71;31.19;101465.22;4429385;32;34310;-75
2022/03/12 08:02:42;;;;;;;6.62;3.17;;;;;;;1.31;31.26;101475.16;4434197;32;35651;-75
2022/03/12 08:05:29;;;;;;;7.53;2.87;;;;;;;1.33;32.03;101471.19;4428338;32;35098;-74
2022/03/12 08:08:17;;;;;;;6.10;2.83;;;;;;;1.55;31.28;101466.44;4425724;32;35426;-74
2022/03/12 08:14:17;;;;;;;6.78;2.50;;;;;;;1.79;30.81;101465.00;4433960;32;34498;-74
2022/03/12 08:17:05;;;;;;;5.90;2.53;;;;;;;2.17;30.35;101471.63;4428012;32;35048;-75
2022/03/12 08:19:51;;;;;;;7.90;2.20;;;;;;;2.24;29.56;101467.03;4423733;32;35312;-75
2022/03/12 08:22:40;;;;;;;6.70;2.85;;;;;;;2.07;30.00;101472.03;4425391;32;34178;-75
2022/03/12 08:25:26;;;;;;;4.78;2.20;;;;;;;2.52;28.97;101471.34;4426321;32;34529;-75
2022/03/12 08:28:14;;;;;;;9.30;2.30;;;;;;;2.48;29.10;101466.34;4433861;32;34967;-75
2022/03/12 08:31:02;;;;;;;8.30;3.28;;;;;;;2.72;28.14;101465.88;4429804;32;35378;-74
2022/03/12 08:33:48;;;;;;;9.23;3.28;;;;;;;2.77;27.85;101474.19;4426521;32;34086;-75
2022/03/12 08:36:35;;;;;;;6.80;3.05;;;;;;;2.72;27.67;101463.16;4432979;32;34662;-74
2022/03/12 08:39:21;;;;;;;7.45;3.30;;;;;;;2.90;27.58;101466.84;4426165;32;36047;-75
2022/03/12 08:42:08;;;;;;;8.98;3.78;;;;;;;2.96;27.96;101467.00;4433243;32;35483;-75
2022/03/12 08:44:55;;;;;;;6.60;3.20;;;;;;;3.08;27.19;101460.69;4427235;32;35054;-75
2022/03/12 08:47:44;;;;;;;10.35;3.80;;;;;;;3.59;27.50;101459.75;4429043;32;35578;-75
2022/03/12 08:50:32;;;;;;;10.82;3.65;;;;;;;3.81;26.30;101459.34;4433203;32;34884;-75
2022/03/12 08:53:20;;;;;;;11.12;4.05;;;;;;;4.34;25.32;101461.56;4411591;32;34688;-75
2022/03/12 08:56:08;;;;;;;7.30;3.37;;;;;;;4.15;24.48;101459.88;4419143;32;35210;-75
2022/03/12 08:58:54;;;;;;;11.85;3.87;;;;;;;4.16;24.40;101462.38;4424690;32;32854;-75
2022/03/12 09:01:43;;;;;;;8.57;3.33;;;;;;;3.94;24.85;101464.66;4433841;32;36020;-74
2022/03/12 09:04:30;;;;;;;8.73;3.25;;;;;;;4.55;24.06;101462.16;4433742;32;34333;-75
2022/03/12 09:07:16;;;;;;;6.97;3.28;;;;;;;4.58;23.76;101459.84;4427758;32;35201;-75
2022/03/12 09:10:05;;;;;;;7.60;3.60;;;;;;;4.16;23.70;101453.41;4433455;32;34695;-75
2022/03/12 09:12:51;;;;;;;7.68;3.22;;;;;;;3.83;23.69;101451.81;4429614;32;34633;-75
2022/03/12 09:15:39;;;;;;;8.30;3.50;;;;;;;4.75;23.76;101457.31;4432644;32;35486;-75
2022/03/12 09:18:26;;;;;;;7.45;2.97;;;;;;;4.99;22.92;101452.03;4425706;32;34217;-75
2022/03/12 09:21:12;;;;;;;10.68;3.90;;;;;;;5.28;21.99;101451.19;4433263;32;34746;-75
2022/03/12 09:23:58;;;;;;;6.32;2.87;;;;;;;5.48;21.96;101456.31;4433074;32;34997;-75
2022/03/12 09:26:45;;;;;;;6.87;3.30;;;;;;;5.83;22.47;101444.69;4433309;32;35132;-75
2022/03/12 09:29:35;;;;;;;7.55;3.60;;;;;;;5.71;21.91;101450.09;4434719;32;34107;-75
2022/03/12 09:32:22;;;;;;;6.05;2.75;;;;;;;6.04;21.56;101454.19;4426953;32;35480;-75
2022/03/12 09:35:11;;;;;;;7.18;3.12;;;;;;;6.18;21.41;101449.34;4435182;32;34949;-75
2022/03/12 09:37:58;;;;;;;7.43;3.20;;;;;;;6.16;21.04;101452.28;4422635;32;34676;-76
2022/03/12 09:40:45;;;;;;;7.30;3.30;;;;;;;6.89;19.85;101441.88;4423592;32;34138;-76
2022/03/12 09:43:31;;;;;;;5.78;3.08;;;;;;;7.89;20.30;101440.37;4422995;32;34778;-76
2022/03/12 09:46:18;;;;;;;8.15;3.08;;;;;;;8.30;19.32;101424.56;4424751;32;34709;-76
2022/03/12 09:49:05;;;;;;;8.85;3.53;;;;;;;8.50;18.81;101438.53;4426783;32;35220;-75
2022/03/12 09:51:51;;;;;;;8.10;3.45;;;;;;;8.75;18.68;101437.22;4429231;32;34273;-75
2022/03/12 09:54:38;;;;;;;7.70;3.22;;;;;;;9.01;17.66;101430.94;4435335;32;34352;-76
2022/03/12 09:57:24;;;;;;;7.15;3.22;;;;;;;8.95;18.03;101436.63;4427499;32;33506;-76
2022/03/12 10:00:12;;;;;;;8.10;3.47;;;;;;;8.84;17.84;101430.22;4434012;32;34544;-76
2022/03/12 10:02:58;;;;;;;8.07;3.55;;;;;;;6.95;19.59;101417.19;4422685;32;33810;-76
2022/03/12 10:05:45;;;;;;;8.88;3.12;;;;;;;9.39;18.87;101428.31;4428274;32;33447;-76
2022/03/12 10:08:31;;;;;;;7.35;4.00;;;;;;;9.65;17.99;101432.12;4434440;32;34962;-76
2022/03/12 10:11:18;;;;;;;7.53;3.58;;;;;;;9.49;17.59;101427.59;4434199;32;35429;-76
2022/03/12 10:14:04;;;;;;;9.88;3.62;;;;;;;9.83;17.65;101412.53;4429188;32;34169;-76
2022/03/12 10:16:55;;;;;;;7.37;3.55;;;;;;;9.95;16.86;101409.63;4434890;32;34230;-76
2022/03/12 10:19:43;;;;;;;7.60;2.87;;;;;;;9.36;17.69;101412.41;4434787;32;34609;-76
2022/03/12 10:22:30;;;;;;;9.80;3.60;;;;;;;9.20;17.99;101409.56;4434635;32;34590;-76
2022/03/12 10:25:16;;;;;;;8.27;3.58;;;;;;;9.41;18.06;101409.75;4427451;32;34100;-76
2022/03/12 10:28:02;;;;;;;7.37;3.50;;;;;;;8.96;17.49;101411.75;4430003;32;34490;-76
2022/03/12 10:30:49;;;;;;;6.28;3.35;;;;;;;8.51;18.28;101418.34;4435195;32;34989;-77
2022/03/12 10:33:36;;;;;;;7.00;3.10;;;;;;;9.24;18.07;101407.13;4433616;32;35388;-76
2022/03/12 10:36:22;;;;;;;6.97;3.42;;;;;;;9.78;17.29;101404.28;4434861;32;34131;-75
2022/03/12 10:39:10;;;;;;;6.85;2.92;;;;;;;9.87;16.29;101412.84;4413963;32;35530;-77
2022/03/12 10:42:07;;;;;;;8.40;3.40;;;;;;;9.26;17.80;101412.34;4431236;32;33833;-77
2022/03/12 10:45:07;;;;;;;7.78;3.42;;;;;;;10.18;17.30;101394.69;4426374;32;34883;-77
2022/03/12 10:47:56;;;;;;;6.53;3.50;;;;;;;10.74;16.15;101394.97;4434717;32;33882;-77
2022/03/12 10:50:44;;;;;;;7.65;3.45;;;;;;;9.57;16.92;101391.56;4412295;32;34659;-77
2022/03/12 10:53:30;;;;;;;8.90;3.22;;;;;;;8.46;18.10;101392.87;4434914;32;35613;-77
2022/03/12 10:56:18;;;;;;;8.00;3.30;;;;;;;9.86;17.40;101395.59;4434510;32;34647;-77
2022/03/12 10:59:10;;;;;;;6.30;2.85;;;;;;;9.83;17.18;101385.16;4434024;32;35237;-77
2022/03/12 11:02:00;;;;;;;6.80;2.90;;;;;;;9.45;17.06;101380.78;4434509;32;34338;-76
2022/03/12 11:04:46;;;;;;;6.80;3.28;;;;;;;10.16;16.71;101376.88;4410890;32;35906;-77
2022/03/12 11:07:34;;;;;;;6.55;3.28;;;;;;;9.23;17.48;101380.84;4430453;32;34603;-77
2022/03/12 11:10:28;;;;;;;6.90;3.30;;;;;;;9.87;16.95;101374.50;4424612;32;34178;-76
2022/03/12 11:13:35;;;;;;;5.15;3.00;;;;;;;10.29;16.53;101368.22;4434567;32;34602;-77
2022/03/12 11:16:32;;;;;;;7.30;3.15;;;;;;;10.09;16.44;101366.16;4433658;32;35960;-76
2022/03/12 11:19:37;;;;;;;4.97;2.60;;;;;;;9.59;17.24;101367.47;4434319;32;34308;-76
2022/03/12 11:22:24;;;;;;;5.37;2.70;;;;;;;8.61;17.43;101373.91;4429601;32;34085;-77
2022/03/12 11:25:12;;;;;;;8.68;2.75;;;;;;;8.68;17.59;101360.03;4434259;32;34992;-77
2022/03/12 11:28:00;;;;;;;6.45;2.80;;;;;;;8.54;18.01;101363.19;4434257;32;34788;-76
2022/03/12 11:30:48;;;;;;;4.90;2.45;;;;;;;8.95;16.72;101355.44;4425420;32;35363;-76
2022/03/12 11:33:35;;;;;;;7.18;2.70;;;;;;;7.80;18.92;101346.34;4433398;32;34678;-77
2022/03/12 11:36:24;;;;;;;6.62;3.00;;;;;;;8.61;17.74;101351.25;4417604;32;34673;-76
2022/03/12 11:39:13;;;;;;;5.80;2.85;;;;;;;7.52;18.54;101359.03;4429425;32;35563;-76
2022/03/12 11:42:13;;;;;;;5.93;2.28;;;;;;;7.88;18.74;101354.09;4423598;32;34508;-76
2022/03/12 11:45:02;;;;;;;6.43;2.85;;;;;;;7.25;18.17;101342.47;4424600;32;34842;-76
2022/03/12 11:47:48;;;;;;;8.73;2.75;;;;;;;7.13;18.44;101342.56;4431164;32;34529;-76
2022/03/12 11:50:35;;;;;;;9.02;3.40;;;;;;;6.81;18.81;101341.44;4433011;32;34552;-77
2022/03/12 11:53:22;;;;;;;7.05;2.50;;;;;;;6.13;20.43;101327.56;4431322;32;35444;-76
2022/03/12 11:56:28;;;;;;;5.75;2.53;;;;;;;6.88;19.75;101325.75;4419497;32;33748;-76
2022/03/12 11:59:15;;;;;;;5.70;2.80;;;;;;;7.03;18.67;101320.59;4429024;32;33572;-76
2022/03/12 12:02:05;;;;;;;6.03;2.53;;;;;;;6.19;19.40;101321.16;4434320;32;35918;-76
2022/03/12 12:04:52;;;;;;;9.55;2.95;;;;;;;5.90;20.24;101324.87;4428176;32;34683;-76
2022/03/12 12:07:45;;;;;;;7.72;2.62;;;;;;;6.49;20.46;101314.69;4423280;32;33701;-76
2022/03/12 12:10:33;;;;;;;7.15;3.05;;;;;;;6.46;19.14;101307.00;4426401;32;35468;-76
2022/03/12 12:13:19;;;;;;;6.03;2.62;;;;;;;6.82;19.26;101294.87;4432522;32;35894;-76
2022/03/12 12:16:09;;;;;;;4.82;2.30;;;;;;;7.17;19.36;101305.56;4434350;32;35547;-76
2022/03/12 12:18:56;;;;;;;5.62;2.70;;;;;;;6.78;18.53;101288.28;4426651;32;34129;-76
2022/03/12 12:21:42;;;;;;;5.45;2.60;;;;;;;7.48;18.64;101295.13;4433841;32;34638;-77
2022/03/12 12:24:38;;;;;;;5.32;2.10;;;;;;;7.62;19.27;101292.88;4434264;32;34936;-77
2022/03/12 12:27:43;;;;;;;7.45;2.58;;;;;;;7.40;18.07;101292.84;4431086;32;35207;-76
2022/03/12 12:30:38;;;;;;;8.43;3.12;;;;;;;7.53;19.00;101292.47;4433265;32;34941;-76
2022/03/12 12:33:28;;;;;;;7.03;2.20;;;;;;;7.01;19.07;101287.31;4423054;32;34134;-76
2022/03/12 12:36:17;;;;;;;5.40;2.42;;;;;;;7.49;18.66;101283.16;4421814;32;34456;-76
2022/03/12 12:39:13;;;;;;;11.82;2.80;;;;;;;7.35;18.56;101281.84;4425855;32;34776;-76
2022/03/12 12:42:05;;;;;;;5.50;2.70;;;;;;;7.37;19.19;101276.94;4434152;32;34436;-76
2022/03/12 12:44:54;;;;;;;5.62;2.65;;;;;;;7.83;18.99;101281.19;4412621;32;34666;-76
2022/03/12 12:47:41;;;;;;;4.68;2.30;;;;;;;7.08;18.60;101273.50;4427107;32;34467;-76
2022/03/12 12:50:28;;;;;;;5.80;2.33;;;;;;;7.72;18.43;101273.09;4433712;32;34596;-76
2022/03/12 12:53:27;;;;;;;5.55;2.65;;;;;;;7.89;18.03;101268.44;4433838;32;34104;-76
2022/03/12 12:56:21;;;;;;;7.03;2.42;;;;;;;8.63;17.78;101264.37;4430498;32;34554;-76
2022/03/12 12:59:12;;;;;;;6.68;2.70;;;;;;;8.81;17.48;101261.25;4433937;32;34061;-76
2022/03/12 13:01:58;;;;;;;5.93;2.62;;;;;;;7.27;17.78;101253.09;4433502;32;34583;-76
2022/03/12 13:04:49;;;;;;;6.43;2.67;;;;;;;9.36;17.29;101249.12;4433878;32;34124;-76
2022/03/12 13:07:59;;;;;;;6.00;2.87;;;;;;;9.29;17.63;101251.25;4421908;32;34398;-76